Airport View

Enter AWOS ICAO identifier for current METAR.

ex. KFNL

KAFP 192055Z AUTO 00000KT 5SM +RA CLR 27/24 A3003 RMK AO2 P0001 60001 T02670241

19 Aug 2019 20:59

Frequency: 119.325

Phone: 704-695-0623

Other Area AWOS: KRCZ - KCQW - KVUJ - KEQY

TAF AMD KCLT 191959Z 1920/2024 20006KT P6SM VCSH SCT050 SCT250 TEMPO 1920/1922 VRB12G25KT 4SM TSRA OVC035CB FM192200 18006KT P6SM TSRA SCT025CB BKN050 FM200200 21003KT P6SM VCSH BKN050 BKN100